sensor_id;sensor_type;location;lat;lon;timestamp;P1;durP1;ratioP1;P2;durP2;ratioP2
46597;SDS011;32318;48.858;8.252;2022-09-11T00:00:47;8.30;;;1.20;;
46597;SDS011;32318;48.858;8.252;2022-09-11T00:08:51;2.58;;;1.08;;
46597;SDS011;32318;48.858;8.252;2022-09-11T00:16:53;3.22;;;0.85;;
46597;SDS011;32318;48.858;8.252;2022-09-11T00:24:53;2.50;;;1.15;;
46597;SDS011;32318;48.858;8.252;2022-09-11T00:32:54;3.20;;;1.20;;
46597;SDS011;32318;48.858;8.252;2022-09-11T00:40:56;2.50;;;1.20;;
46597;SDS011;32318;48.858;8.252;2022-09-11T00:48:58;7.53;;;1.33;;
46597;SDS011;32318;48.858;8.252;2022-09-11T00:57:01;5.70;;;1.38;;
46597;SDS011;32318;48.858;8.252;2022-09-11T01:05:08;5.97;;;1.17;;
46597;SDS011;32318;48.858;8.252;2022-09-11T01:30:40;2.10;;;0.93;;
46597;SDS011;32318;48.858;8.252;2022-09-11T01:38:51;4.72;;;1.35;;
46597;SDS011;32318;48.858;8.252;2022-09-11T01:46:55;6.05;;;1.33;;
46597;SDS011;32318;48.858;8.252;2022-09-11T01:54:57;9.02;;;1.90;;
46597;SDS011;32318;48.858;8.252;2022-09-11T02:03:18;7.00;;;1.67;;
46597;SDS011;32318;48.858;8.252;2022-09-11T02:11:24;9.88;;;1.98;;
46597;SDS011;32318;48.858;8.252;2022-09-11T02:19:25;5.60;;;1.48;;
46597;SDS011;32318;48.858;8.252;2022-09-11T02:27:28;5.30;;;1.60;;
46597;SDS011;32318;48.858;8.252;2022-09-11T02:35:33;6.78;;;1.42;;
46597;SDS011;32318;48.858;8.252;2022-09-11T03:00:12;4.15;;;1.30;;
46597;SDS011;32318;48.858;8.252;2022-09-11T03:08:13;10.53;;;1.60;;
46597;SDS011;32318;48.858;8.252;2022-09-11T03:16:16;7.50;;;1.50;;
46597;SDS011;32318;48.858;8.252;2022-09-11T03:24:16;7.32;;;1.63;;
46597;SDS011;32318;48.858;8.252;2022-09-11T03:32:16;5.28;;;1.42;;
46597;SDS011;32318;48.858;8.252;2022-09-11T03:40:17;3.92;;;1.55;;
46597;SDS011;32318;48.858;8.252;2022-09-11T03:48:19;4.82;;;1.58;;
46597;SDS011;32318;48.858;8.252;2022-09-11T03:56:19;10.67;;;1.50;;
46597;SDS011;32318;48.858;8.252;2022-09-11T04:04:20;8.55;;;1.83;;
46597;SDS011;32318;48.858;8.252;2022-09-11T04:12:20;4.97;;;1.40;;
46597;SDS011;32318;48.858;8.252;2022-09-11T04:20:20;5.18;;;1.50;;
46597;SDS011;32318;48.858;8.252;2022-09-11T04:28:21;6.10;;;1.77;;
46597;SDS011;32318;48.858;8.252;2022-09-11T04:36:22;12.55;;;2.05;;
46597;SDS011;32318;48.858;8.252;2022-09-11T04:44:24;7.25;;;1.60;;
46597;SDS011;32318;48.858;8.252;2022-09-11T04:52:25;5.32;;;2.35;;
46597;SDS011;32318;48.858;8.252;2022-09-11T05:00:26;7.72;;;2.08;;
46597;SDS011;32318;48.858;8.252;2022-09-11T05:08:27;6.88;;;2.10;;
46597;SDS011;32318;48.858;8.252;2022-09-11T05:16:27;13.40;;;2.00;;
46597;SDS011;32318;48.858;8.252;2022-09-11T05:24:28;6.45;;;1.80;;
46597;SDS011;32318;48.858;8.252;2022-09-11T05:32:29;5.72;;;2.15;;
46597;SDS011;32318;48.858;8.252;2022-09-11T05:40:29;13.90;;;2.20;;
46597;SDS011;32318;48.858;8.252;2022-09-11T05:48:30;8.15;;;2.15;;
46597;SDS011;32318;48.858;8.252;2022-09-11T05:56:31;7.30;;;2.00;;
46597;SDS011;32318;48.858;8.252;2022-09-11T06:04:32;4.85;;;2.42;;
46597;SDS011;32318;48.858;8.252;2022-09-11T06:12:33;12.80;;;2.08;;
46597;SDS011;32318;48.858;8.252;2022-09-11T06:20:34;6.63;;;2.53;;
46597;SDS011;32318;48.858;8.252;2022-09-11T06:28:34;12.20;;;2.42;;
46597;SDS011;32318;48.858;8.252;2022-09-11T06:36:35;5.90;;;2.45;;
46597;SDS011;32318;48.858;8.252;2022-09-11T06:44:36;7.07;;;2.72;;
46597;SDS011;32318;48.858;8.252;2022-09-11T06:52:36;9.57;;;4.90;;
46597;SDS011;32318;48.858;8.252;2022-09-11T07:00:37;11.98;;;3.33;;
46597;SDS011;32318;48.858;8.252;2022-09-11T07:08:37;7.03;;;3.70;;
46597;SDS011;32318;48.858;8.252;2022-09-11T07:16:38;11.05;;;3.42;;
46597;SDS011;32318;48.858;8.252;2022-09-11T07:24:38;13.25;;;3.70;;
46597;SDS011;32318;48.858;8.252;2022-09-11T07:32:39;10.55;;;4.15;;
46597;SDS011;32318;48.858;8.252;2022-09-11T07:40:39;19.03;;;4.60;;
46597;SDS011;32318;48.858;8.252;2022-09-11T07:48:39;8.93;;;4.20;;
46597;SDS011;32318;48.858;8.252;2022-09-11T07:56:41;16.13;;;5.35;;
46597;SDS011;32318;48.858;8.252;2022-09-11T08:04:42;8.27;;;4.07;;
46597;SDS011;32318;48.858;8.252;2022-09-11T08:12:42;14.80;;;5.20;;
46597;SDS011;32318;48.858;8.252;2022-09-11T08:20:45;10.10;;;4.72;;
46597;SDS011;32318;48.858;8.252;2022-09-11T08:28:45;10.35;;;4.30;;
46597;SDS011;32318;48.858;8.252;2022-09-11T08:36:47;8.98;;;4.15;;
46597;SDS011;32318;48.858;8.252;2022-09-11T08:44:50;10.00;;;4.43;;
46597;SDS011;32318;48.858;8.252;2022-09-11T08:52:54;8.07;;;5.13;;
46597;SDS011;32318;48.858;8.252;2022-09-11T09:09:20;10.55;;;5.10;;
46597;SDS011;32318;48.858;8.252;2022-09-11T09:17:40;9.20;;;4.10;;
46597;SDS011;32318;48.858;8.252;2022-09-11T09:25:48;10.27;;;4.32;;
46597;SDS011;32318;48.858;8.252;2022-09-11T09:42:02;9.75;;;4.88;;
46597;SDS011;32318;48.858;8.252;2022-09-11T09:50:49;12.68;;;4.20;;
46597;SDS011;32318;48.858;8.252;2022-09-11T09:58:48;8.25;;;3.97;;
46597;SDS011;32318;48.858;8.252;2022-09-11T10:07:11;11.77;;;4.30;;
46597;SDS011;32318;48.858;8.252;2022-09-11T10:15:19;11.15;;;3.90;;
46597;SDS011;32318;48.858;8.252;2022-09-11T10:23:25;8.40;;;4.07;;
46597;SDS011;32318;48.858;8.252;2022-09-11T10:31:26;12.43;;;3.55;;
46597;SDS011;32318;48.858;8.252;2022-09-11T10:39:27;6.30;;;3.57;;
46597;SDS011;32318;48.858;8.252;2022-09-11T10:47:31;17.10;;;3.13;;
46597;SDS011;32318;48.858;8.252;2022-09-11T10:55:35;6.67;;;3.30;;
46597;SDS011;32318;48.858;8.252;2022-09-11T11:03:39;6.80;;;3.10;;
46597;SDS011;32318;48.858;8.252;2022-09-11T11:28:59;9.23;;;3.17;;
46597;SDS011;32318;48.858;8.252;2022-09-11T11:37:23;5.30;;;2.38;;
46597;SDS011;32318;48.858;8.252;2022-09-11T11:45:30;6.68;;;2.10;;
46597;SDS011;32318;48.858;8.252;2022-09-11T11:54:11;4.07;;;2.05;;
46597;SDS011;32318;48.858;8.252;2022-09-11T12:02:22;4.55;;;2.03;;
46597;SDS011;32318;48.858;8.252;2022-09-11T12:18:33;4.70;;;2.10;;
46597;SDS011;32318;48.858;8.252;2022-09-11T12:26:33;6.50;;;2.85;;
46597;SDS011;32318;48.858;8.252;2022-09-11T12:50:50;3.03;;;2.00;;
46597;SDS011;32318;48.858;8.252;2022-09-11T12:58:59;4.13;;;2.15;;
46597;SDS011;32318;48.858;8.252;2022-09-11T13:07:04;5.25;;;1.85;;
46597;SDS011;32318;48.858;8.252;2022-09-11T13:15:29;4.88;;;1.92;;
46597;SDS011;32318;48.858;8.252;2022-09-11T13:23:44;3.15;;;1.60;;
46597;SDS011;32318;48.858;8.252;2022-09-11T13:31:45;4.72;;;1.80;;
46597;SDS011;32318;48.858;8.252;2022-09-11T13:39:46;3.67;;;1.60;;
46597;SDS011;32318;48.858;8.252;2022-09-11T13:47:46;3.47;;;1.80;;
46597;SDS011;32318;48.858;8.252;2022-09-11T13:55:47;5.13;;;1.80;;
46597;SDS011;32318;48.858;8.252;2022-09-11T14:03:47;4.25;;;1.90;;
46597;SDS011;32318;48.858;8.252;2022-09-11T14:11:48;1.83;;;1.50;;
46597;SDS011;32318;48.858;8.252;2022-09-11T14:19:49;9.57;;;1.63;;
46597;SDS011;32318;48.858;8.252;2022-09-11T14:27:52;2.58;;;1.55;;
46597;SDS011;32318;48.858;8.252;2022-09-11T14:35:53;4.32;;;1.52;;
46597;SDS011;32318;48.858;8.252;2022-09-11T14:44:01;3.70;;;1.40;;
46597;SDS011;32318;48.858;8.252;2022-09-11T14:52:02;2.30;;;1.30;;
46597;SDS011;32318;48.858;8.252;2022-09-11T15:00:03;3.07;;;1.20;;
46597;SDS011;32318;48.858;8.252;2022-09-11T15:08:03;7.28;;;1.70;;
46597;SDS011;32318;48.858;8.252;2022-09-11T15:16:04;3.30;;;1.60;;
46597;SDS011;32318;48.858;8.252;2022-09-11T15:24:05;6.83;;;1.50;;
46597;SDS011;32318;48.858;8.252;2022-09-11T15:32:05;2.60;;;1.38;;
46597;SDS011;32318;48.858;8.252;2022-09-11T15:40:06;4.35;;;1.48;;
46597;SDS011;32318;48.858;8.252;2022-09-11T15:48:07;9.15;;;1.67;;
46597;SDS011;32318;48.858;8.252;2022-09-11T15:56:08;3.50;;;1.20;;
46597;SDS011;32318;48.858;8.252;2022-09-11T16:04:16;4.43;;;1.70;;
46597;SDS011;32318;48.858;8.252;2022-09-11T16:12:18;2.20;;;1.20;;
46597;SDS011;32318;48.858;8.252;2022-09-11T16:20:18;4.80;;;1.50;;
46597;SDS011;32318;48.858;8.252;2022-09-11T16:28:19;2.80;;;1.55;;
46597;SDS011;32318;48.858;8.252;2022-09-11T16:36:20;5.50;;;1.90;;
46597;SDS011;32318;48.858;8.252;2022-09-11T16:44:20;2.30;;;1.20;;
46597;SDS011;32318;48.858;8.252;2022-09-11T16:52:22;6.18;;;1.40;;
46597;SDS011;32318;48.858;8.252;2022-09-11T17:00:23;2.30;;;1.20;;
46597;SDS011;32318;48.858;8.252;2022-09-11T17:08:23;5.30;;;1.45;;
46597;SDS011;32318;48.858;8.252;2022-09-11T17:16:24;5.50;;;1.40;;
46597;SDS011;32318;48.858;8.252;2022-09-11T17:24:26;5.38;;;1.48;;
46597;SDS011;32318;48.858;8.252;2022-09-11T17:32:27;1.58;;;1.27;;
46597;SDS011;32318;48.858;8.252;2022-09-11T17:40:27;7.60;;;1.97;;
46597;SDS011;32318;48.858;8.252;2022-09-11T17:48:28;3.43;;;1.60;;
46597;SDS011;32318;48.858;8.252;2022-09-11T17:56:29;5.15;;;2.22;;
46597;SDS011;32318;48.858;8.252;2022-09-11T18:04:32;3.30;;;2.10;;
46597;SDS011;32318;48.858;8.252;2022-09-11T18:12:32;3.13;;;2.00;;
46597;SDS011;32318;48.858;8.252;2022-09-11T18:20:34;3.35;;;1.75;;
46597;SDS011;32318;48.858;8.252;2022-09-11T18:28:36;5.43;;;2.05;;
46597;SDS011;32318;48.858;8.252;2022-09-11T18:36:36;3.88;;;2.10;;
46597;SDS011;32318;48.858;8.252;2022-09-11T18:44:39;4.30;;;2.20;;
46597;SDS011;32318;48.858;8.252;2022-09-11T18:52:45;5.50;;;2.10;;
46597;SDS011;32318;48.858;8.252;2022-09-11T19:00:48;5.60;;;2.40;;
46597;SDS011;32318;48.858;8.252;2022-09-11T19:08:48;3.28;;;2.05;;
46597;SDS011;32318;48.858;8.252;2022-09-11T19:16:51;8.05;;;2.42;;
46597;SDS011;32318;48.858;8.252;2022-09-11T19:24:52;7.05;;;2.50;;
46597;SDS011;32318;48.858;8.252;2022-09-11T19:32:52;5.72;;;2.70;;
46597;SDS011;32318;48.858;8.252;2022-09-11T19:40:52;4.68;;;2.42;;
46597;SDS011;32318;48.858;8.252;2022-09-11T19:48:54;9.73;;;2.55;;
46597;SDS011;32318;48.858;8.252;2022-09-11T19:56:56;7.15;;;2.72;;
46597;SDS011;32318;48.858;8.252;2022-09-11T20:04:56;4.55;;;2.67;;
46597;SDS011;32318;48.858;8.252;2022-09-11T20:12:56;4.10;;;2.55;;
46597;SDS011;32318;48.858;8.252;2022-09-11T20:21:01;5.78;;;2.40;;
46597;SDS011;32318;48.858;8.252;2022-09-11T20:29:05;18.75;;;3.03;;
46597;SDS011;32318;48.858;8.252;2022-09-11T20:37:07;8.18;;;2.60;;
46597;SDS011;32318;48.858;8.252;2022-09-11T20:45:08;7.95;;;3.08;;
46597;SDS011;32318;48.858;8.252;2022-09-11T20:53:09;4.03;;;2.65;;
46597;SDS011;32318;48.858;8.252;2022-09-11T21:01:10;7.18;;;2.97;;
46597;SDS011;32318;48.858;8.252;2022-09-11T21:09:13;5.97;;;2.95;;
46597;SDS011;32318;48.858;8.252;2022-09-11T21:17:13;13.23;;;3.25;;
46597;SDS011;32318;48.858;8.252;2022-09-11T21:25:13;6.10;;;2.97;;
46597;SDS011;32318;48.858;8.252;2022-09-11T21:33:14;6.57;;;3.28;;
46597;SDS011;32318;48.858;8.252;2022-09-11T21:41:14;4.45;;;2.80;;
46597;SDS011;32318;48.858;8.252;2022-09-11T21:49:14;5.43;;;3.33;;
46597;SDS011;32318;48.858;8.252;2022-09-11T21:57:15;6.38;;;3.47;;
46597;SDS011;32318;48.858;8.252;2022-09-11T22:05:15;5.95;;;3.53;;
46597;SDS011;32318;48.858;8.252;2022-09-11T22:13:16;9.27;;;3.70;;
46597;SDS011;32318;48.858;8.252;2022-09-11T22:21:17;5.82;;;3.65;;
46597;SDS011;32318;48.858;8.252;2022-09-11T22:29:18;5.80;;;3.60;;
46597;SDS011;32318;48.858;8.252;2022-09-11T22:37:18;8.20;;;3.78;;
46597;SDS011;32318;48.858;8.252;2022-09-11T22:45:18;5.32;;;3.67;;
46597;SDS011;32318;48.858;8.252;2022-09-11T22:53:19;7.60;;;3.85;;
46597;SDS011;32318;48.858;8.252;2022-09-11T23:01:19;10.82;;;4.18;;
46597;SDS011;32318;48.858;8.252;2022-09-11T23:09:21;7.72;;;4.25;;
46597;SDS011;32318;48.858;8.252;2022-09-11T23:17:21;5.57;;;3.83;;
46597;SDS011;32318;48.858;8.252;2022-09-11T23:25:22;8.18;;;4.20;;
46597;SDS011;32318;48.858;8.252;2022-09-11T23:33:24;9.77;;;4.18;;
46597;SDS011;32318;48.858;8.252;2022-09-11T23:41:24;6.35;;;4.38;;
46597;SDS011;32318;48.858;8.252;2022-09-11T23:49:25;6.75;;;4.30;;
46597;SDS011;32318;48.858;8.252;2022-09-11T23:57:26;10.63;;;4.80;;
